Time,TemperatureC,DewpointC,PressurehPa,WindDirection,WindDirectionDegrees,WindSpeedKMH,WindSpeedGustKMH,Humidity,HourlyPrecipMM,Conditions,Clouds,dailyrainMM,SolarRadiationWatts/m^2,UVIndex,SoftwareType,DateUTC
2026-05-09 00:04:30,29.8,24.7,1005.4,ENE,70,0.6,12.2,74,0.0,,,0.0,0,0,n/a,2026-05-08T16:04:30Z
2026-05-09 00:09:27,29.8,24.7,1005.1,ENE,62,4.4,16.3,74.1,0.0,,,0.0,0,0,n/a,2026-05-08T16:09:27Z
2026-05-09 00:14:35,29.8,24.8,1005.4,ENE,73,2.1,16.3,75,0.0,,,0.0,0,0,n/a,2026-05-08T16:14:35Z
2026-05-09 00:19:43,29.7,24.8,1005.1,NE,52,0.9,12.2,75,0.0,,,0.0,0,0,n/a,2026-05-08T16:19:43Z
2026-05-09 00:24:29,29.7,24.8,1005.1,NE,55,4.8,20.1,75,0.0,,,0.0,0,0,n/a,2026-05-08T16:24:29Z
2026-05-09 00:29:37,29.6,24.7,1005.1,ENE,59,2.9,16.3,75,0.0,,,0.0,0,0,n/a,2026-05-08T16:29:37Z
2026-05-09 00:34:34,29.6,24.7,1005.1,North,7,1.7,16.3,75,0.0,,,0.0,0,0,n/a,2026-05-08T16:34:34Z
2026-05-09 00:39:42,29.6,24.8,1005.1,ENE,66,2.8,12.2,75.3,0.0,,,0.0,0,0,n/a,2026-05-08T16:39:42Z
2026-05-09 00:44:28,29.6,24.8,1005.1,NNE,13,2.1,16.3,75.8,0.0,,,0.0,0,0,n/a,2026-05-08T16:44:28Z
2026-05-09 00:49:36,29.6,24.9,1005.1,North,0,0.9,12.2,76,0.0,,,0.0,0,0,n/a,2026-05-08T16:49:36Z
2026-05-09 00:54:33,29.5,24.8,1004.7,NNE,28,0.9,7.9,76,0.0,,,0.0,0,0,n/a,2026-05-08T16:54:33Z
2026-05-09 00:59:30,29.5,24.8,1005.1,NE,52,0.4,7.9,76,0.0,,,0.0,0,0,n/a,2026-05-08T16:59:30Z
2026-05-09 01:04:27,29.4,24.7,1004.7,NE,53,1.8,16.3,76,0.0,,,0.0,0,0,n/a,2026-05-08T17:04:27Z
2026-05-09 01:09:46,29.5,24.8,1004.7,North,2,0,4,76,0.0,,,0.0,0,0,n/a,2026-05-08T17:09:46Z
2026-05-09 01:14:54,29.4,24.7,1004.7,NNE,24,0,4,76,0.0,,,0.0,0,0,n/a,2026-05-08T17:14:54Z
2026-05-09 01:19:40,29.4,24.7,1004.7,ENE,62,0,4,76,0.0,,,0.0,0,0,n/a,2026-05-08T17:19:40Z
2026-05-09 01:24:59,29.4,24.7,1004.7,ENE,57,0.5,7.9,76,0.0,,,0.0,0,0,n/a,2026-05-08T17:24:59Z
2026-05-09 01:29:34,29.4,24.7,1004.7,NNE,28,0,0,76,0.0,,,0.0,0,0,n/a,2026-05-08T17:29:34Z
2026-05-09 01:34:31,29.4,24.7,1004.7,NNE,28,0,0,76,0.0,,,0.0,0,0,n/a,2026-05-08T17:34:31Z
2026-05-09 01:39:28,29.3,24.6,1004.4,ENE,65,0.4,7.9,76,0.0,,,0.0,0,0,n/a,2026-05-08T17:39:28Z
2026-05-09 01:44:47,29.3,24.6,1004.7,NNE,33,0.2,7.9,76,0.0,,,0.0,0,0,n/a,2026-05-08T17:44:47Z
2026-05-09 01:49:33,29.3,24.7,1004.4,NE,35,2.7,16.3,76,0.0,,,0.0,0,0,n/a,2026-05-08T17:49:33Z
2026-05-09 01:54:41,29.4,24.7,1004.4,NNE,13,0,12.2,76,0.0,,,0.0,0,0,n/a,2026-05-08T17:54:41Z
2026-05-09 01:59:38,29.3,24.7,1004.4,North,11,0,4,76,0.0,,,0.0,0,0,n/a,2026-05-08T17:59:38Z
2026-05-09 02:04:57,29.3,24.7,1004.4,ENE,62,5,16.3,76,0.0,,,0.0,0,0,n/a,2026-05-08T18:04:57Z
2026-05-09 02:09:32,29.4,24.7,1004.1,ENE,65,1.7,16.3,76,0.0,,,0.0,0,0,n/a,2026-05-08T18:09:32Z
2026-05-09 02:14:51,29.3,24.6,1004.4,ENE,71,0.4,4,76,0.0,,,0.0,0,0,n/a,2026-05-08T18:14:51Z
2026-05-09 02:19:59,29.4,24.7,1004.1,NE,39,1.4,7.9,76,0.0,,,0.0,0,0,n/a,2026-05-08T18:19:59Z
2026-05-09 02:24:45,29.4,24.7,1004.1,NE,51,1.4,7.9,76,0.0,,,0.0,0,0,n/a,2026-05-08T18:24:45Z
2026-05-09 02:29:42,29.4,24.7,1004.1,NE,50,0.2,4,76,0.0,,,0.0,0,0,n/a,2026-05-08T18:29:42Z
2026-05-09 02:34:50,29.3,24.7,1004.1,NE,39,0.1,7.9,76,0.0,,,0.0,0,0,n/a,2026-05-08T18:34:50Z
2026-05-09 02:39:47,29.3,24.6,1004.1,NE,34,0.9,7.9,76,0.0,,,0.0,0,0,n/a,2026-05-08T18:39:47Z
2026-05-09 02:44:44,29.3,24.6,1004.1,NNE,26,0,0,76,0.0,,,0.0,0,0,n/a,2026-05-08T18:44:44Z
2026-05-09 02:49:52,29.2,24.5,1004.1,NE,34,0.8,4,76,0.0,,,0.0,0,0,n/a,2026-05-08T18:49:52Z
2026-05-09 02:54:49,29.3,24.6,1004.1,NE,38,0,7.9,76,0.0,,,0.0,0,0,n/a,2026-05-08T18:54:49Z
2026-05-09 02:59:57,29.3,24.6,1004.1,NE,36,0.2,4,76,0.0,,,0.0,0,0,n/a,2026-05-08T18:59:57Z
2026-05-09 03:04:54,29.2,24.5,1004.1,ENE,60,2.6,12.2,76,0.0,,,0.0,0,0,n/a,2026-05-08T19:04:54Z
2026-05-09 03:09:51,29.2,24.5,1004.1,NE,48,2,12.2,76,0.0,,,0.0,0,0,n/a,2026-05-08T19:09:51Z
2026-05-09 03:14:48,29.2,24.7,1004.1,NE,34,1.4,16.3,76.9,0.0,,,0.0,0,0,n/a,2026-05-08T19:14:48Z
2026-05-09 03:19:56,29.2,24.7,1004.1,ENE,64,0.9,16.3,77,0.0,,,0.0,0,0,n/a,2026-05-08T19:19:56Z
2026-05-09 03:24:53,29.2,24.7,1004.1,ENE,59,4.2,20.1,77,0.0,,,0.0,0,0,n/a,2026-05-08T19:24:53Z
2026-05-09 03:29:17,29.1,24.7,1004.1,NNE,21,1.5,20.1,77,0.0,,,0.0,0,0,n/a,2026-05-08T19:29:17Z
2026-05-09 03:34:36,29.1,24.7,1004.1,ENE,70,2,12.2,77,0.0,,,0.0,0,0,n/a,2026-05-08T19:34:36Z
2026-05-09 03:39:55,29.1,24.7,1003.7,ENE,57,3.9,16.3,77,0.0,,,0.0,0,0,n/a,2026-05-08T19:39:55Z
2026-05-09 03:44:30,29.1,24.7,1004.1,NE,50,2.3,12.2,77,0.0,,,0.0,0,0,n/a,2026-05-08T19:44:30Z
2026-05-09 03:49:27,29.1,24.7,1004.1,NE,37,0.6,12.2,77,0.0,,,0.0,0,0,n/a,2026-05-08T19:49:27Z
2026-05-09 03:54:35,29.1,24.8,1004.1,NE,47,1.2,7.9,77.4,0.0,,,0.0,0,0,n/a,2026-05-08T19:54:35Z
2026-05-09 03:59:54,29,24.8,1004.1,ENE,69,5.7,24.1,78,0.0,,,0.0,0,0,n/a,2026-05-08T19:59:54Z
2026-05-09 04:04:29,29,24.8,1004.1,NNE,13,0.3,12.2,78,0.0,,,0.0,0,0,n/a,2026-05-08T20:04:29Z
2026-05-09 04:09:59,29,24.8,1004.1,NE,50,3.5,24.1,78,0.0,,,0.0,0,0,n/a,2026-05-08T20:09:59Z
2026-05-09 04:14:34,29,24.8,1004.1,ENE,64,3.6,24.1,78,0.0,,,0.0,0,0,n/a,2026-05-08T20:14:34Z
2026-05-09 04:19:42,29,24.8,1004.1,NE,49,2.5,12.2,78,0.0,,,0.0,0,0,n/a,2026-05-08T20:19:42Z
2026-05-09 04:24:28,29,24.8,1004.1,NE,38,1.2,12.2,78,0.0,,,0.0,0,0,n/a,2026-05-08T20:24:28Z
2026-05-09 04:29:36,29,24.8,1004.1,ENE,62,4.7,20.1,78,0.0,,,0.0,0,0,n/a,2026-05-08T20:29:36Z
2026-05-09 04:34:33,28.9,24.7,1004.1,NNE,15,0.7,7.9,78,0.0,,,0.0,0,0,n/a,2026-05-08T20:34:33Z
2026-05-09 04:39:41,28.9,24.7,1004.1,NE,54,0.1,4,78,0.0,,,0.0,0,0,n/a,2026-05-08T20:39:41Z
2026-05-09 04:44:38,28.9,24.7,1004.1,NNE,27,0,0,78,0.0,,,0.0,0,0,n/a,2026-05-08T20:44:38Z
2026-05-09 04:49:35,28.9,24.7,1004.4,NE,42,0.5,4,78,0.0,,,0.0,0,0,n/a,2026-05-08T20:49:35Z
2026-05-09 04:54:32,28.8,24.6,1004.4,NNE,32,0,0,78,0.0,,,0.0,0,0,n/a,2026-05-08T20:54:32Z
2026-05-09 04:59:40,28.7,24.5,1004.4,NNE,23,0.6,4,78.1,0.0,,,0.0,0,0,n/a,2026-05-08T20:59:40Z
2026-05-09 05:04:59,28.7,24.7,1004.4,NNE,24,1,7.9,78.8,0.0,,,0.0,0,0,n/a,2026-05-08T21:04:59Z
2026-05-09 05:09:34,28.5,24.7,1004.4,NNE,21,3.7,16.3,79.6,0.0,,,0.0,0,0,n/a,2026-05-08T21:09:34Z
2026-05-09 05:14:53,28.3,24.5,1004.4,NNE,15,3,16.3,80,0.0,,,0.0,0,0,n/a,2026-05-08T21:14:53Z
2026-05-09 05:19:39,28.3,24.5,1004.4,North,1,1.5,12.2,80,0.0,,,0.0,0,0,n/a,2026-05-08T21:19:39Z
2026-05-09 05:24:47,28.4,24.6,1004.4,NNE,16,0.2,4,80,0.0,,,0.0,0,0,n/a,2026-05-08T21:24:47Z
2026-05-09 05:29:33,28.4,24.6,1004.4,NNE,23,0,0,80,0.0,,,0.0,0,0,n/a,2026-05-08T21:29:33Z
2026-05-09 05:34:52,28.4,24.6,1004.7,NNE,21,0,0,80,0.0,,,0.0,3,0,n/a,2026-05-08T21:34:52Z
2026-05-09 05:39:38,28.3,24.6,1004.7,NNE,15,0,0,80,0.0,,,0.0,6,0,n/a,2026-05-08T21:39:38Z
2026-05-09 05:44:57,28.3,24.5,1004.4,NNE,29,0,0,79.8,0.0,,,0.0,10,0,n/a,2026-05-08T21:44:57Z
2026-05-09 05:49:32,28.4,24.4,1004.4,NE,49,0.6,4,79,0.0,,,0.0,13,0,n/a,2026-05-08T21:49:32Z
2026-05-09 05:54:51,28.5,24.5,1004.4,NNE,29,0,0,79.1,0.0,,,0.0,16,0,n/a,2026-05-08T21:54:51Z
2026-05-09 05:59:48,28.6,24.6,1004.7,NE,37,1.1,7.9,79,0.0,,,0.0,17,0,n/a,2026-05-08T21:59:48Z
2026-05-09 06:04:45,28.6,24.6,1004.4,NNE,27,0.2,4,79,0.0,,,0.0,20,0,n/a,2026-05-08T22:04:45Z
2026-05-09 06:09:31,28.7,24.7,1004.7,NE,37,0,0,79,0.0,,,0.0,24,0,n/a,2026-05-08T22:09:31Z
2026-05-09 06:14:50,28.8,24.8,1004.7,NNE,17,0.3,4,79,0.0,,,0.0,29,0,n/a,2026-05-08T22:14:50Z
2026-05-09 06:19:58,28.8,24.8,1005.1,North,11,1.6,7.9,78.9,0.0,,,0.0,34,0,n/a,2026-05-08T22:19:58Z
2026-05-09 06:24:44,29,24.8,1005.1,NNW,346,4.5,12.2,78.1,0.0,,,0.0,40,0,n/a,2026-05-08T22:24:44Z
2026-05-09 06:29:30,29.2,24.8,1005.1,NNE,21,4.4,12.2,77.6,0.0,,,0.0,45,0,n/a,2026-05-08T22:29:30Z
2026-05-09 06:34:38,29.3,24.8,1005.1,North,351,7.5,20.1,77,0.0,,,0.0,46,0,n/a,2026-05-08T22:34:38Z
2026-05-09 06:39:57,29.5,24.9,1005.4,NNE,18,7.9,24.1,76.4,0.0,,,0.0,49,0,n/a,2026-05-08T22:39:57Z
2026-05-09 06:44:32,29.6,24.9,1005.4,NNE,17,8.1,24.1,76,0.0,,,0.0,50,0,n/a,2026-05-08T22:44:32Z
2026-05-09 06:49:18,29.7,25,1005.4,North,351,10.9,24.1,76,0.0,,,0.0,52,0,n/a,2026-05-08T22:49:18Z
2026-05-09 06:54:37,29.6,24.9,1005.8,NNW,333,7.8,20.1,76,0.0,,,0.0,56,0,n/a,2026-05-08T22:54:37Z
2026-05-09 06:59:56,30,25.1,1005.8,NNE,13,2.3,24.1,75.2,0.0,,,0.0,59,0,n/a,2026-05-08T22:59:56Z
2026-05-09 07:04:31,30.4,25.3,1005.8,NNE,30,1.9,12.2,74.1,0.0,,,0.0,64,0,n/a,2026-05-08T23:04:31Z
2026-05-09 07:09:28,30.7,25.4,1005.8,NNE,23,2.9,12.2,73.6,0.0,,,0.0,70,0,n/a,2026-05-08T23:09:28Z
2026-05-09 07:14:36,30.5,25.3,1005.8,NNE,14,1.2,4,73.8,0.0,,,0.0,122,1,n/a,2026-05-08T23:14:36Z
2026-05-09 07:19:55,30.8,25.5,1005.8,NNE,22,2.5,16.3,73.4,0.0,,,0.0,182,1,n/a,2026-05-08T23:19:55Z
2026-05-09 07:24:30,31,25.6,1005.8,NE,44,1.3,12.2,73.3,0.0,,,0.0,223,2,n/a,2026-05-08T23:24:30Z
2026-05-09 07:29:49,31.3,25.9,1005.8,NE,54,5.4,20.1,72.9,0.0,,,0.0,237,2,n/a,2026-05-08T23:29:49Z
2026-05-09 07:34:35,31,25.7,1005.8,NNE,26,3.2,7.9,73.4,0.0,,,0.0,259,2,n/a,2026-05-08T23:34:35Z
2026-05-09 07:39:43,31,25.6,1005.8,NNE,20,5.8,20.1,73,0.0,,,0.0,278,2,n/a,2026-05-08T23:39:43Z
2026-05-09 07:44:29,31.3,25.6,1006.1,NNE,16,0.8,12.2,71.9,0.0,,,0.0,279,2,n/a,2026-05-08T23:44:29Z
2026-05-09 07:49:48,31.6,26,1006.1,NNE,33,4.7,16.3,72.2,0.0,,,0.0,298,2,n/a,2026-05-08T23:49:48Z
2026-05-09 07:54:34,31.7,26,1006.1,NNE,24,2.9,12.2,71.6,0.0,,,0.0,338,3,n/a,2026-05-08T23:54:34Z
2026-05-09 07:59:42,31.8,26,1006.4,NE,41,1,12.2,71.4,0.0,,,0.0,368,3,n/a,2026-05-08T23:59:42Z
2026-05-09 08:04:28,32.3,26.2,1006.1,North,2,1.8,7.9,70.5,0.0,,,0.0,393,3,n/a,2026-05-09T00:04:28Z
2026-05-09 08:09:36,32.2,26.3,1006.1,ENE,69,5.2,20.1,71,0.0,,,0.0,439,4,n/a,2026-05-09T00:09:36Z
2026-05-09 08:14:33,31.9,26.1,1006.1,SW,229,0.2,4,71.4,0.0,,,0.0,490,4,n/a,2026-05-09T00:14:33Z
2026-05-09 08:19:41,32.3,26.2,1006.1,SSW,211,8.5,32.3,70.7,0.0,,,0.0,516,5,n/a,2026-05-09T00:19:41Z
2026-05-09 08:24:27,32.2,26.2,1006.4,ESE,119,3.1,44.3,70.4,0.0,,,0.0,572,5,n/a,2026-05-09T00:24:27Z
2026-05-09 08:29:46,32.8,26.2,1006.4,NE,46,2.6,20.1,68.4,0.0,,,0.0,599,5,n/a,2026-05-09T00:29:46Z
2026-05-09 08:34:54,32.7,26.1,1006.4,ENE,70,8.2,28,68.3,0.0,,,0.0,655,6,n/a,2026-05-09T00:34:54Z
2026-05-09 08:39:40,32.7,25.9,1006.4,NE,55,10,24.1,68,0.0,,,0.0,655,6,n/a,2026-05-09T00:39:40Z
2026-05-09 08:44:59,32.8,26,1006.4,NE,44,5.1,20.1,67.7,0.0,,,0.0,661,6,n/a,2026-05-09T00:44:59Z
2026-05-09 08:49:34,32.9,26.1,1006.4,ESE,110,5.5,20.1,67.8,0.0,,,0.0,686,6,n/a,2026-05-09T00:49:34Z
2026-05-09 08:54:31,33.1,26.2,1006.4,NNE,32,4.2,20.1,67.1,0.0,,,0.0,705,6,n/a,2026-05-09T00:54:31Z
2026-05-09 08:59:39,33.3,26.2,1006.4,East,83,4.7,20.1,66.8,0.0,,,0.0,735,7,n/a,2026-05-09T00:59:39Z
2026-05-09 09:04:58,33.6,26.4,1006.1,NNE,29,4.5,20.1,66.1,0.0,,,0.0,799,7,n/a,2026-05-09T01:04:58Z
2026-05-09 09:09:33,34,26.5,1006.4,NE,54,4.1,12.2,65,0.0,,,0.0,841,8,n/a,2026-05-09T01:09:33Z
2026-05-09 09:14:53,33.9,26.2,1006.1,NW,315,4.6,20.1,64.3,0.0,,,0.0,846,8,n/a,2026-05-09T01:14:53Z
2026-05-09 09:19:36,34.2,26.3,1006.1,ENE,75,7.4,16.3,63.8,0.0,,,0.0,847,8,n/a,2026-05-09T01:19:36Z
2026-05-09 09:24:44,34.4,26.4,1006.1,NE,47,7.1,20.1,63.3,0.0,,,0.0,851,8,n/a,2026-05-09T01:24:44Z
2026-05-09 09:29:52,34.2,26.3,1006.1,NE,47,4.1,20.1,63.7,0.0,,,0.0,824,8,n/a,2026-05-09T01:29:52Z
2026-05-09 09:34:38,34.7,26.3,1006.1,ENE,58,3.2,12.2,62.1,0.0,,,0.0,794,7,n/a,2026-05-09T01:34:38Z
2026-05-09 09:39:41,34.2,26.1,1006.1,NE,56,5.9,16.3,62.8,0.0,,,0.0,785,7,n/a,2026-05-09T01:39:41Z
2026-05-09 09:44:27,34.7,26.6,1006.1,NNE,15,6,20.1,62.8,0.0,,,0.0,793,7,n/a,2026-05-09T01:44:27Z
2026-05-09 09:49:46,34,27.5,1006.1,North,352,9.3,28,69,0.0,,,0.0,810,7,n/a,2026-05-09T01:49:46Z
2026-05-09 09:54:21,32.9,26.8,1006.1,SSW,208,7.3,24.1,70.3,0.0,,,0.0,232,2,n/a,2026-05-09T01:54:21Z
2026-05-09 09:59:36,33,26.6,1006.1,South,184,4.5,16.3,69.3,0.0,,,0.0,808,7,n/a,2026-05-09T01:59:36Z
2026-05-09 10:04:44,33.5,27.1,1005.8,SW,226,5.4,20.1,69.3,0.0,,,0.0,599,5,n/a,2026-05-09T02:04:44Z
2026-05-09 10:09:30,32.7,26.7,1006.1,SSW,204,11.1,36.4,71,0.0,,,0.0,530,5,n/a,2026-05-09T02:09:30Z
2026-05-09 10:14:38,32.6,26.8,1005.8,East,100,6.5,20.1,71.3,0.0,,,0.0,252,2,n/a,2026-05-09T02:14:38Z
2026-05-09 10:19:57,32.4,26.6,1005.8,North,11,3.3,16.3,71.6,0.0,,,0.0,832,8,n/a,2026-05-09T02:19:57Z
2026-05-09 10:24:43,32.4,26.6,1005.8,NNE,19,6.4,28,71.6,0.0,,,0.0,540,5,n/a,2026-05-09T02:24:43Z
2026-05-09 10:29:19,32.6,27,1005.8,SSE,161,11.2,28,72.5,0.0,,,0.0,792,7,n/a,2026-05-09T02:29:19Z
2026-05-09 10:34:38,32.5,26.9,1005.8,South,190,25.7,60.5,72.4,0.0,,,0.0,789,7,n/a,2026-05-09T02:34:38Z
2026-05-09 10:39:57,32.5,26.7,1005.8,SSW,210,18,52.6,71.7,0.0,,,0.0,360,3,n/a,2026-05-09T02:39:57Z
2026-05-09 10:44:39,32.2,26.6,1005.4,SW,221,11.1,36.4,72.6,0.0,,,0.0,177,1,n/a,2026-05-09T02:44:39Z
2026-05-09 10:49:47,32.2,26.7,1005.8,SSW,213,12.6,36.4,72.6,0.0,,,0.0,179,1,n/a,2026-05-09T02:49:47Z
2026-05-09 10:54:55,31.9,26.6,1005.8,SSW,200,22.3,44.3,73.8,0.0,,,0.0,358,3,n/a,2026-05-09T02:54:55Z
2026-05-09 10:59:41,31.6,26.4,1005.8,SSW,196,21.5,44.3,73.9,0.0,,,0.0,792,7,n/a,2026-05-09T02:59:41Z
2026-05-09 11:04:41,32.8,26.9,1005.4,South,176,14.1,32.3,71.3,0.0,,,0.0,812,7,n/a,2026-05-09T03:04:41Z
2026-05-09 11:09:49,33.2,27.1,1005.1,SW,216,16.3,32.3,70.4,0.0,,,0.0,819,7,n/a,2026-05-09T03:09:49Z
2026-05-09 11:14:35,32.7,26.8,1005.4,SSW,206,18.8,36.4,71.1,0.0,,,0.0,897,8,n/a,2026-05-09T03:14:35Z
2026-05-09 11:19:21,33.2,27.2,1005.1,South,190,18.3,40.4,70.9,0.0,,,0.0,866,8,n/a,2026-05-09T03:19:21Z
2026-05-09 11:24:27,32.9,27.2,1005.4,WNW,287,12.4,40.4,72.1,0.0,,,0.0,823,7,n/a,2026-05-09T03:24:27Z
2026-05-09 11:29:35,33.6,27.6,1005.1,NNE,13,10.3,36.4,71,0.0,,,0.0,824,8,n/a,2026-05-09T03:29:35Z
2026-05-09 11:34:33,34,27.6,1005.1,North,5,9.5,40.4,69.7,0.0,,,0.0,811,7,n/a,2026-05-09T03:34:33Z
2026-05-09 11:39:41,34.1,27.8,1005.1,South,176,17.2,44.3,70,0.0,,,0.0,775,7,n/a,2026-05-09T03:39:41Z
2026-05-09 11:44:27,33.6,27.4,1005.1,SSW,201,20.4,44.3,70.3,0.0,,,0.0,769,7,n/a,2026-05-09T03:44:27Z
2026-05-09 11:49:46,33.9,27.5,1005.1,SSW,207,13.6,32.3,69.3,0.0,,,0.0,801,7,n/a,2026-05-09T03:49:46Z
2026-05-09 11:54:21,33.9,27.4,1005.1,South,174,11.1,32.3,69,0.0,,,0.0,801,7,n/a,2026-05-09T03:54:21Z
2026-05-09 11:59:40,33.6,27.5,1005.1,SSW,206,15.5,40.4,70.4,0.0,,,0.0,244,2,n/a,2026-05-09T03:59:40Z
2026-05-09 12:04:59,33.3,27.2,1004.7,NNE,24,5,32.3,70.6,0.0,,,0.0,815,7,n/a,2026-05-09T04:04:59Z
2026-05-09 12:09:34,33.5,27.3,1004.7,South,187,9.7,36.4,70.3,0.0,,,0.0,286,2,n/a,2026-05-09T04:09:34Z
2026-05-09 12:14:53,33.4,27.3,1004.7,SW,217,10.9,32.3,70.6,0.0,,,0.0,815,7,n/a,2026-05-09T04:14:53Z
2026-05-09 12:19:31,33,27.2,1004.7,SW,218,9.4,32.3,71.8,0.0,,,0.0,269,2,n/a,2026-05-09T04:19:31Z
2026-05-09 12:24:28,33.4,27.3,1004.4,SW,231,5.8,20.1,70.8,0.0,,,0.0,805,7,n/a,2026-05-09T04:24:28Z
2026-05-09 12:29:49,34.1,27.9,1004.4,North,350,6.1,24.1,70,0.0,,,0.0,798,7,n/a,2026-05-09T04:29:49Z
2026-05-09 12:34:48,33.7,27.5,1004.4,East,85,7.2,24.1,70.3,0.0,,,0.0,684,6,n/a,2026-05-09T04:34:48Z
2026-05-09 12:39:45,33.5,27.4,1004.4,South,191,12.2,40.4,70.4,0.0,,,0.0,793,7,n/a,2026-05-09T04:39:45Z
2026-05-09 12:44:42,33.7,27.6,1004.1,SSW,199,5.2,40.4,70.4,0.0,,,0.0,396,3,n/a,2026-05-09T04:44:42Z
2026-05-09 12:49:50,33.6,27.5,1004.1,SSW,201,10,28,70.3,0.0,,,0.0,773,7,n/a,2026-05-09T04:49:50Z
2026-05-09 12:54:36,34.2,27.7,1003.7,WSW,258,10.3,36.4,69,0.0,,,0.0,737,7,n/a,2026-05-09T04:54:36Z
2026-05-09 12:59:56,34.6,27.8,1003.7,NW,321,9.5,28,68,0.0,,,0.0,753,7,n/a,2026-05-09T04:59:56Z
2026-05-09 13:04:42,34.7,27.9,1003.7,North,359,11.3,32.3,67.9,0.0,,,0.0,759,7,n/a,2026-05-09T05:04:42Z
2026-05-09 13:09:50,35.4,28.1,1003.4,SSW,205,10.6,32.3,66.1,0.0,,,0.0,757,7,n/a,2026-05-09T05:09:50Z
2026-05-09 13:14:36,35.6,28.2,1003.4,North,354,11,28,65.9,0.0,,,0.0,757,7,n/a,2026-05-09T05:14:36Z
2026-05-09 13:19:44,35.2,28.1,1003.4,SSE,147,7,28,66.7,0.0,,,0.0,746,7,n/a,2026-05-09T05:19:44Z
2026-05-09 13:24:30,34.7,27.9,1003.4,SSW,199,13.4,32.3,67.9,0.0,,,0.0,757,7,n/a,2026-05-09T05:24:30Z
2026-05-09 13:29:49,34.2,27.7,1003.0,South,191,12.4,32.3,68.7,0.0,,,0.0,250,2,n/a,2026-05-09T05:29:49Z
2026-05-09 13:34:35,34.8,27.9,1003.0,SE,133,4.3,16.3,67.8,0.0,,,0.0,750,7,n/a,2026-05-09T05:34:35Z
2026-05-09 13:39:54,34.5,27.8,1003.0,South,190,12.2,32.3,68.3,0.0,,,0.0,199,1,n/a,2026-05-09T05:39:54Z
2026-05-09 13:44:51,33.9,27.3,1003.0,SW,218,18.3,32.3,68.6,0.0,,,0.0,184,1,n/a,2026-05-09T05:44:51Z
2026-05-09 13:49:48,34.2,27.1,1003.0,SSW,212,8,32.3,66.6,0.0,,,0.0,728,7,n/a,2026-05-09T05:49:48Z
2026-05-09 13:54:34,35.1,27.6,1002.7,SSW,194,9.9,24.1,65.4,0.0,,,0.0,660,6,n/a,2026-05-09T05:54:34Z
2026-05-09 13:59:53,35.2,27.6,1002.7,East,89,3.4,20.1,65,0.0,,,0.0,685,6,n/a,2026-05-09T05:59:53Z
2026-05-09 14:04:28,35.4,27.5,1002.7,SW,227,6.6,24.1,64.1,0.0,,,0.0,680,6,n/a,2026-05-09T06:04:28Z
2026-05-09 14:09:47,35.7,27.8,1002.7,SSE,167,12.5,28,64,0.0,,,0.0,665,6,n/a,2026-05-09T06:09:47Z
2026-05-09 14:14:33,35.3,27.6,1002.7,SSW,207,8.9,24.1,64.5,0.0,,,0.0,629,6,n/a,2026-05-09T06:14:33Z
2026-05-09 14:19:41,35.2,27.4,1002.4,SW,217,9.8,52.6,64.2,0.0,,,0.0,647,6,n/a,2026-05-09T06:19:41Z
2026-05-09 14:24:27,35.5,27.6,1002.4,SSW,207,22.1,56.5,63.9,0.0,,,0.0,686,6,n/a,2026-05-09T06:24:27Z
2026-05-09 14:29:46,35.6,27.6,1002.4,South,186,17,56.5,63.8,0.0,,,0.0,678,6,n/a,2026-05-09T06:29:46Z
2026-05-09 14:34:21,35.5,27.7,1002.4,SW,224,14.4,48.3,64.1,0.0,,,0.0,657,6,n/a,2026-05-09T06:34:21Z
2026-05-09 14:39:40,35.4,27.5,1002.4,SSW,199,31.8,76.6,64,0.0,,,0.0,633,6,n/a,2026-05-09T06:39:40Z
2026-05-09 14:44:59,35.3,27.7,1002.4,South,183,18.7,76.6,65,0.0,,,0.0,599,5,n/a,2026-05-09T06:44:59Z
2026-05-09 14:49:34,35.8,28.1,1002.4,SW,230,7.6,28,64.9,0.0,,,0.0,557,5,n/a,2026-05-09T06:49:34Z
2026-05-09 14:54:20,35.3,27.8,1002.4,SSW,207,14,48.3,65.3,0.0,,,0.0,180,1,n/a,2026-05-09T06:54:20Z
2026-05-09 14:59:39,34.8,27.5,1002.4,SSW,201,18.2,48.3,66,0.0,,,0.0,181,1,n/a,2026-05-09T06:59:39Z
2026-05-09 15:04:47,35,27.6,1002.0,East,91,14.7,56.5,65.7,0.0,,,0.0,541,5,n/a,2026-05-09T07:04:47Z
2026-05-09 15:09:55,35,27.7,1002.0,SSE,153,16.9,56.5,65.8,0.0,,,0.0,492,4,n/a,2026-05-09T07:09:55Z
2026-05-09 15:14:52,35.3,27.7,1002.0,South,189,20.9,64.4,65.2,0.0,,,0.0,453,4,n/a,2026-05-09T07:14:52Z
2026-05-09 15:19:38,35.3,27.9,1002.0,South,181,30,72.7,65.6,0.0,,,0.0,454,4,n/a,2026-05-09T07:19:38Z
2026-05-09 15:24:57,35.5,28,1002.0,South,187,15.1,72.7,65.4,0.0,,,0.0,455,4,n/a,2026-05-09T07:24:57Z
2026-05-09 15:29:32,36,28.3,1002.0,South,187,13.1,44.3,65,0.0,,,0.0,447,4,n/a,2026-05-09T07:29:32Z
2026-05-09 15:34:51,35.8,28.2,1002.0,SSW,204,14.3,44.3,65.1,0.0,,,0.0,440,4,n/a,2026-05-09T07:34:51Z
2026-05-09 15:39:37,35.5,28,1002.0,South,184,13.7,32.3,65.3,0.0,,,0.0,413,4,n/a,2026-05-09T07:39:37Z
2026-05-09 15:44:45,35.6,28,1002.0,South,190,13.7,32.3,65,0.0,,,0.0,394,3,n/a,2026-05-09T07:44:45Z
2026-05-09 15:49:31,35.6,28,1001.7,SSW,195,17.7,40.4,65,0.0,,,0.0,381,3,n/a,2026-05-09T07:49:31Z
2026-05-09 15:54:28,35.6,27.9,1001.7,East,99,10.8,40.4,64.9,0.0,,,0.0,338,3,n/a,2026-05-09T07:54:28Z
2026-05-09 15:59:36,35.9,28.1,1001.7,WSW,243,5.5,20.1,64.3,0.0,,,0.0,314,3,n/a,2026-05-09T07:59:36Z
2026-05-09 16:04:44,35.8,28.1,1001.7,SSE,162,9.8,28,64.7,0.0,,,0.0,308,3,n/a,2026-05-09T08:04:44Z
2026-05-09 16:09:30,35.9,28.1,1002.0,NW,324,3.5,16.3,64.3,0.0,,,0.0,295,2,n/a,2026-05-09T08:09:30Z
2026-05-09 16:14:49,35.9,28.2,1001.7,SW,222,17,44.3,64.8,0.0,,,0.0,288,2,n/a,2026-05-09T08:14:49Z
2026-05-09 16:19:24,35.9,28,1001.7,SE,138,5.4,40.4,64.3,0.0,,,0.0,266,2,n/a,2026-05-09T08:19:24Z
2026-05-09 16:24:43,36,28.1,1001.7,SSW,203,8.8,28,64.1,0.0,,,0.0,256,2,n/a,2026-05-09T08:24:43Z
2026-05-09 16:29:51,36.1,28.2,1001.7,South,177,10.3,32.3,64,0.0,,,0.0,239,2,n/a,2026-05-09T08:29:51Z
2026-05-09 16:34:37,35.9,28.1,1001.7,South,184,19.2,64.4,64.1,0.0,,,0.0,229,2,n/a,2026-05-09T08:34:37Z
2026-05-09 16:39:56,35.9,28,1001.7,ENE,66,10.2,64.4,63.9,0.0,,,0.0,234,2,n/a,2026-05-09T08:39:56Z
2026-05-09 16:44:58,35.7,28,1002.0,NW,311,31.1,64.4,64.6,0.0,,,0.0,198,1,n/a,2026-05-09T08:44:58Z
2026-05-09 16:49:33,35.3,27.7,1001.7,SSW,198,22.8,64.4,65,0.0,,,0.0,107,1,n/a,2026-05-09T08:49:33Z
2026-05-09 16:54:52,35,27.4,1002.0,South,176,14.7,72.7,65,0.0,,,0.0,80,0,n/a,2026-05-09T08:54:52Z
2026-05-09 16:59:38,35,27.4,1002.0,SSE,155,6,32.3,65,0.0,,,0.0,95,0,n/a,2026-05-09T08:59:38Z
2026-05-09 17:04:28,35.1,27.5,1002.0,ENE,70,2.8,24.1,64.9,0.0,,,0.0,79,0,n/a,2026-05-09T09:04:28Z
2026-05-09 17:09:47,35.2,27.5,1002.0,SSE,164,3.7,16.3,64.4,0.0,,,0.0,69,0,n/a,2026-05-09T09:09:47Z
2026-05-09 17:14:33,35.2,27.6,1002.0,East,97,3.8,20.1,64.9,0.0,,,0.0,67,0,n/a,2026-05-09T09:14:33Z
2026-05-09 17:19:41,34.9,27.3,1002.0,SSW,212,14.3,32.3,65,0.0,,,0.0,54,0,n/a,2026-05-09T09:19:41Z
2026-05-09 17:24:27,34.7,27.1,1002.0,East,85,13.6,48.3,65.1,0.0,,,0.0,50,0,n/a,2026-05-09T09:24:27Z
2026-05-09 17:29:46,34.9,26.8,1002.4,East,84,10.8,48.3,63,0.0,,,0.0,47,0,n/a,2026-05-09T09:29:46Z
2026-05-09 17:34:32,35.1,26.9,1002.0,NNE,15,18.6,68.4,62.6,0.0,,,0.0,44,0,n/a,2026-05-09T09:34:32Z
2026-05-09 17:39:40,35,27.4,1002.4,NNE,21,14.1,68.4,65,0.0,,,0.0,35,0,n/a,2026-05-09T09:39:40Z
2026-05-09 17:44:59,34.8,26.5,1002.7,ENE,72,5.8,32.3,62.1,0.0,,,0.0,26,0,n/a,2026-05-09T09:44:59Z
2026-05-09 17:49:45,34.7,26.1,1002.7,NE,36,10,32.3,61,0.0,,,0.0,19,0,n/a,2026-05-09T09:49:45Z